sensor_id;sensor_type;location;lat;lon;timestamp;P1;durP1;ratioP1;P2;durP2;ratioP2
51949;SDS011;37974;53.218;6.640;2024-03-23T00:55:50;1949.85;;;999.90;;
51949;SDS011;37974;53.218;6.640;2024-03-23T00:58:16;1993.38;;;999.90;;
51949;SDS011;37974;53.218;6.640;2024-03-23T01:00:42;1999.90;;;999.90;;
51949;SDS011;37974;53.218;6.640;2024-03-23T01:03:08;1999.90;;;999.90;;
51949;SDS011;37974;53.218;6.640;2024-03-23T01:05:33;1819.22;;;999.90;;
51949;SDS011;37974;53.218;6.640;2024-03-23T01:07:59;1999.90;;;999.90;;
51949;SDS011;37974;53.218;6.640;2024-03-23T01:10:25;1806.10;;;999.90;;
51949;SDS011;37974;53.218;6.640;2024-03-23T01:12:50;1999.90;;;999.90;;
51949;SDS011;37974;53.218;6.640;2024-03-23T01:15:16;1993.43;;;999.90;;
51949;SDS011;37974;53.218;6.640;2024-03-23T01:17:42;1999.90;;;999.90;;
51949;SDS011;37974;53.218;6.640;2024-03-23T01:20:07;1997.78;;;999.90;;
51949;SDS011;37974;53.218;6.640;2024-03-23T01:22:33;1999.90;;;999.90;;
51949;SDS011;37974;53.218;6.640;2024-03-23T01:24:59;1999.90;;;999.90;;
51949;SDS011;37974;53.218;6.640;2024-03-23T01:27:24;1998.20;;;999.90;;
51949;SDS011;37974;53.218;6.640;2024-03-23T01:29:50;1905.32;;;999.90;;
51949;SDS011;37974;53.218;6.640;2024-03-23T01:32:17;1999.90;;;999.90;;
51949;SDS011;37974;53.218;6.640;2024-03-23T01:34:43;1898.75;;;999.90;;
51949;SDS011;37974;53.218;6.640;2024-03-23T01:37:09;1940.97;;;999.90;;
51949;SDS011;37974;53.218;6.640;2024-03-23T01:39:35;1999.90;;;999.90;;
51949;SDS011;37974;53.218;6.640;2024-03-23T01:42:01;1999.90;;;999.90;;
51949;SDS011;37974;53.218;6.640;2024-03-23T01:44:27;1999.90;;;999.90;;
51949;SDS011;37974;53.218;6.640;2024-03-23T01:46:53;1995.60;;;999.90;;
51949;SDS011;37974;53.218;6.640;2024-03-23T01:49:19;1932.13;;;999.90;;
51949;SDS011;37974;53.218;6.640;2024-03-23T01:51:45;1999.90;;;999.90;;
51949;SDS011;37974;53.218;6.640;2024-03-23T01:54:11;1901.90;;;999.90;;
51949;SDS011;37974;53.218;6.640;2024-03-23T01:56:37;1868.57;;;999.90;;
51949;SDS011;37974;53.218;6.640;2024-03-23T01:59:03;1994.68;;;999.90;;
51949;SDS011;37974;53.218;6.640;2024-03-23T02:01:30;1883.03;;;999.90;;
51949;SDS011;37974;53.218;6.640;2024-03-23T02:03:56;1912.38;;;999.90;;
51949;SDS011;37974;53.218;6.640;2024-03-23T02:06:22;1901.40;;;999.90;;
51949;SDS011;37974;53.218;6.640;2024-03-23T02:08:49;1883.40;;;999.90;;
51949;SDS011;37974;53.218;6.640;2024-03-23T02:11:15;1908.78;;;999.90;;
51949;SDS011;37974;53.218;6.640;2024-03-23T02:13:40;1999.90;;;999.90;;
51949;SDS011;37974;53.218;6.640;2024-03-23T02:16:06;1862.25;;;999.90;;
51949;SDS011;37974;53.218;6.640;2024-03-23T02:18:32;1998.05;;;999.90;;
51949;SDS011;37974;53.218;6.640;2024-03-23T02:20:58;1999.90;;;999.90;;
51949;SDS011;37974;53.218;6.640;2024-03-23T02:23:24;1999.90;;;999.90;;
51949;SDS011;37974;53.218;6.640;2024-03-23T02:25:50;1931.28;;;999.90;;
51949;SDS011;37974;53.218;6.640;2024-03-23T02:28:16;1831.53;;;999.90;;
51949;SDS011;37974;53.218;6.640;2024-03-23T02:30:42;1856.45;;;999.90;;
51949;SDS011;37974;53.218;6.640;2024-03-23T02:33:08;1999.90;;;999.90;;
51949;SDS011;37974;53.218;6.640;2024-03-23T02:35:34;1999.90;;;999.90;;
51949;SDS011;37974;53.218;6.640;2024-03-23T02:37:59;1999.90;;;999.90;;
51949;SDS011;37974;53.218;6.640;2024-03-23T02:40:25;1937.10;;;999.90;;
51949;SDS011;37974;53.218;6.640;2024-03-23T02:42:52;1998.78;;;999.90;;
51949;SDS011;37974;53.218;6.640;2024-03-23T02:45:18;1874.65;;;999.90;;
51949;SDS011;37974;53.218;6.640;2024-03-23T02:47:44;1999.90;;;999.90;;
51949;SDS011;37974;53.218;6.640;2024-03-23T02:50:09;1999.90;;;999.90;;
51949;SDS011;37974;53.218;6.640;2024-03-23T02:52:36;1999.90;;;999.90;;
51949;SDS011;37974;53.218;6.640;2024-03-23T02:55:02;1999.75;;;999.90;;
51949;SDS011;37974;53.218;6.640;2024-03-23T02:57:28;1919.32;;;999.90;;
51949;SDS011;37974;53.218;6.640;2024-03-23T02:59:54;1979.32;;;999.90;;
51949;SDS011;37974;53.218;6.640;2024-03-23T03:02:20;1999.90;;;999.90;;
51949;SDS011;37974;53.218;6.640;2024-03-23T03:04:46;1985.18;;;999.90;;
51949;SDS011;37974;53.218;6.640;2024-03-23T03:07:12;1999.90;;;999.90;;
51949;SDS011;37974;53.218;6.640;2024-03-23T03:09:38;1841.65;;;999.90;;
51949;SDS011;37974;53.218;6.640;2024-03-23T03:12:05;1859.18;;;999.90;;
51949;SDS011;37974;53.218;6.640;2024-03-23T03:14:31;1791.57;;;999.90;;
51949;SDS011;37974;53.218;6.640;2024-03-23T03:16:56;1963.85;;;999.90;;
51949;SDS011;37974;53.218;6.640;2024-03-23T03:19:22;1990.20;;;999.90;;
51949;SDS011;37974;53.218;6.640;2024-03-23T03:21:48;1922.78;;;999.90;;
51949;SDS011;37974;53.218;6.640;2024-03-23T03:24:14;1917.57;;;999.90;;
51949;SDS011;37974;53.218;6.640;2024-03-23T03:26:40;1999.90;;;999.90;;
51949;SDS011;37974;53.218;6.640;2024-03-23T03:29:06;1999.90;;;999.90;;
51949;SDS011;37974;53.218;6.640;2024-03-23T03:31:31;1999.90;;;999.90;;
51949;SDS011;37974;53.218;6.640;2024-03-23T03:33:57;1997.00;;;999.90;;
51949;SDS011;37974;53.218;6.640;2024-03-23T03:36:23;1999.90;;;999.90;;
51949;SDS011;37974;53.218;6.640;2024-03-23T03:38:48;1999.90;;;999.90;;
51949;SDS011;37974;53.218;6.640;2024-03-23T03:41:14;1999.90;;;999.90;;
51949;SDS011;37974;53.218;6.640;2024-03-23T03:43:40;1999.90;;;999.90;;
51949;SDS011;37974;53.218;6.640;2024-03-23T03:46:06;1923.47;;;999.90;;
51949;SDS011;37974;53.218;6.640;2024-03-23T03:48:33;1999.90;;;999.90;;
51949;SDS011;37974;53.218;6.640;2024-03-23T03:50:59;1999.90;;;999.90;;
51949;SDS011;37974;53.218;6.640;2024-03-23T03:53:25;1999.90;;;999.90;;
51949;SDS011;37974;53.218;6.640;2024-03-23T03:55:51;1999.90;;;999.90;;
51949;SDS011;37974;53.218;6.640;2024-03-23T03:58:17;1999.90;;;999.90;;
51949;SDS011;37974;53.218;6.640;2024-03-23T04:00:42;1999.90;;;999.90;;
51949;SDS011;37974;53.218;6.640;2024-03-23T04:03:08;1999.90;;;999.90;;
51949;SDS011;37974;53.218;6.640;2024-03-23T04:05:34;1999.90;;;999.90;;
51949;SDS011;37974;53.218;6.640;2024-03-23T04:08:00;1983.32;;;999.90;;
51949;SDS011;37974;53.218;6.640;2024-03-23T04:10:25;1999.90;;;999.90;;
51949;SDS011;37974;53.218;6.640;2024-03-23T04:12:52;1999.90;;;999.90;;
51949;SDS011;37974;53.218;6.640;2024-03-23T04:15:18;1999.90;;;999.90;;
51949;SDS011;37974;53.218;6.640;2024-03-23T04:17:44;1999.90;;;999.90;;
51949;SDS011;37974;53.218;6.640;2024-03-23T04:20:10;1931.90;;;999.90;;
51949;SDS011;37974;53.218;6.640;2024-03-23T04:22:38;1999.90;;;999.90;;
51949;SDS011;37974;53.218;6.640;2024-03-23T04:25:05;1999.90;;;999.90;;
51949;SDS011;37974;53.218;6.640;2024-03-23T04:27:32;1999.90;;;999.90;;
51949;SDS011;37974;53.218;6.640;2024-03-23T04:29:58;1969.05;;;999.90;;
51949;SDS011;37974;53.218;6.640;2024-03-23T04:32:26;1999.90;;;999.90;;
51949;SDS011;37974;53.218;6.640;2024-03-23T04:34:52;1999.90;;;999.90;;
51949;SDS011;37974;53.218;6.640;2024-03-23T04:37:18;1999.90;;;999.90;;
51949;SDS011;37974;53.218;6.640;2024-03-23T04:39:45;1934.80;;;999.90;;
51949;SDS011;37974;53.218;6.640;2024-03-23T04:42:10;1999.90;;;999.90;;
51949;SDS011;37974;53.218;6.640;2024-03-23T04:44:37;1999.90;;;999.90;;
51949;SDS011;37974;53.218;6.640;2024-03-23T04:47:02;1999.90;;;999.90;;
51949;SDS011;37974;53.218;6.640;2024-03-23T04:49:28;1999.90;;;999.90;;
51949;SDS011;37974;53.218;6.640;2024-03-23T04:51:54;1948.47;;;999.90;;
51949;SDS011;37974;53.218;6.640;2024-03-23T04:54:20;1999.90;;;999.90;;
51949;SDS011;37974;53.218;6.640;2024-03-23T04:56:45;1999.90;;;999.90;;
51949;SDS011;37974;53.218;6.640;2024-03-23T04:59:11;1999.90;;;999.90;;
51949;SDS011;37974;53.218;6.640;2024-03-23T05:01:37;1999.90;;;999.90;;
51949;SDS011;37974;53.218;6.640;2024-03-23T05:04:05;1983.70;;;999.90;;
51949;SDS011;37974;53.218;6.640;2024-03-23T05:06:31;1999.90;;;999.90;;
51949;SDS011;37974;53.218;6.640;2024-03-23T05:08:56;1999.90;;;999.90;;
51949;SDS011;37974;53.218;6.640;2024-03-23T05:11:22;1999.90;;;999.90;;
51949;SDS011;37974;53.218;6.640;2024-03-23T05:13:48;1999.90;;;999.90;;
51949;SDS011;37974;53.218;6.640;2024-03-23T05:16:13;1999.90;;;999.90;;
51949;SDS011;37974;53.218;6.640;2024-03-23T05:18:39;1999.90;;;999.90;;
51949;SDS011;37974;53.218;6.640;2024-03-23T05:21:04;1999.90;;;999.90;;
51949;SDS011;37974;53.218;6.640;2024-03-23T05:23:30;1999.90;;;999.90;;
51949;SDS011;37974;53.218;6.640;2024-03-23T05:25:56;1974.70;;;999.90;;
51949;SDS011;37974;53.218;6.640;2024-03-23T05:28:22;1999.90;;;999.90;;
51949;SDS011;37974;53.218;6.640;2024-03-23T05:30:51;1999.90;;;999.90;;
51949;SDS011;37974;53.218;6.640;2024-03-23T05:33:19;1999.90;;;999.90;;
51949;SDS011;37974;53.218;6.640;2024-03-23T05:35:45;1999.90;;;999.90;;
51949;SDS011;37974;53.218;6.640;2024-03-23T05:38:13;1999.90;;;999.90;;
51949;SDS011;37974;53.218;6.640;2024-03-23T05:40:39;1984.70;;;999.90;;
51949;SDS011;37974;53.218;6.640;2024-03-23T05:43:06;1999.90;;;999.90;;
51949;SDS011;37974;53.218;6.640;2024-03-23T05:45:32;1999.90;;;999.90;;
51949;SDS011;37974;53.218;6.640;2024-03-23T05:47:59;1999.90;;;999.90;;
51949;SDS011;37974;53.218;6.640;2024-03-23T05:50:25;1999.90;;;999.90;;
51949;SDS011;37974;53.218;6.640;2024-03-23T05:52:50;1999.90;;;999.90;;
51949;SDS011;37974;53.218;6.640;2024-03-23T05:55:17;1999.90;;;999.90;;
51949;SDS011;37974;53.218;6.640;2024-03-23T05:57:43;1999.90;;;999.90;;
51949;SDS011;37974;53.218;6.640;2024-03-23T06:00:09;1999.90;;;999.90;;
51949;SDS011;37974;53.218;6.640;2024-03-23T06:02:41;1999.90;;;999.90;;
51949;SDS011;37974;53.218;6.640;2024-03-23T06:05:10;1999.90;;;999.90;;
51949;SDS011;37974;53.218;6.640;2024-03-23T06:07:37;1965.57;;;999.90;;
51949;SDS011;37974;53.218;6.640;2024-03-23T06:10:03;1999.90;;;999.90;;
51949;SDS011;37974;53.218;6.640;2024-03-23T06:12:30;1999.90;;;999.90;;
51949;SDS011;37974;53.218;6.640;2024-03-23T06:14:56;1970.15;;;999.90;;
51949;SDS011;37974;53.218;6.640;2024-03-23T06:17:22;1902.80;;;999.90;;
51949;SDS011;37974;53.218;6.640;2024-03-23T06:19:48;1886.63;;;999.90;;
51949;SDS011;37974;53.218;6.640;2024-03-23T06:22:14;1999.90;;;999.90;;
51949;SDS011;37974;53.218;6.640;2024-03-23T06:24:40;1999.90;;;999.90;;
51949;SDS011;37974;53.218;6.640;2024-03-23T06:27:06;1764.40;;;999.90;;
51949;SDS011;37974;53.218;6.640;2024-03-23T06:29:32;1634.20;;;999.90;;
51949;SDS011;37974;53.218;6.640;2024-03-23T06:31:58;1729.63;;;999.90;;
51949;SDS011;37974;53.218;6.640;2024-03-23T06:34:24;1515.45;;;999.90;;
51949;SDS011;37974;53.218;6.640;2024-03-23T06:36:50;1385.07;;;999.90;;
51949;SDS011;37974;53.218;6.640;2024-03-23T06:39:16;1354.40;;;999.90;;
51949;SDS011;37974;53.218;6.640;2024-03-23T06:41:43;1156.72;;;999.90;;
51949;SDS011;37974;53.218;6.640;2024-03-23T06:44:16;1146.47;;;999.90;;
51949;SDS011;37974;53.218;6.640;2024-03-23T06:46:42;1182.63;;;999.90;;
51949;SDS011;37974;53.218;6.640;2024-03-23T06:49:08;1120.72;;;998.65;;
51949;SDS011;37974;53.218;6.640;2024-03-23T06:51:34;1581.85;;;999.90;;
51949;SDS011;37974;53.218;6.640;2024-03-23T06:53:59;1159.82;;;999.90;;
51949;SDS011;37974;53.218;6.640;2024-03-23T06:56:25;1099.22;;;984.15;;
51949;SDS011;37974;53.218;6.640;2024-03-23T06:58:51;1132.85;;;999.90;;
51949;SDS011;37974;53.218;6.640;2024-03-23T07:01:16;1555.95;;;999.90;;
51949;SDS011;37974;53.218;6.640;2024-03-23T07:03:42;1702.72;;;999.90;;
51949;SDS011;37974;53.218;6.640;2024-03-23T07:06:09;1455.70;;;999.90;;
51949;SDS011;37974;53.218;6.640;2024-03-23T07:08:35;1179.43;;;999.90;;
51949;SDS011;37974;53.218;6.640;2024-03-23T07:11:01;1146.72;;;999.90;;
51949;SDS011;37974;53.218;6.640;2024-03-23T07:13:27;1121.57;;;998.63;;
51949;SDS011;37974;53.218;6.640;2024-03-23T07:15:53;1128.22;;;999.90;;
51949;SDS011;37974;53.218;6.640;2024-03-23T07:18:20;1142.85;;;999.90;;
51949;SDS011;37974;53.218;6.640;2024-03-23T07:20:54;1109.40;;;994.08;;
51949;SDS011;37974;53.218;6.640;2024-03-23T07:23:22;1229.55;;;999.90;;
51949;SDS011;37974;53.218;6.640;2024-03-23T07:25:56;1278.00;;;999.90;;
51949;SDS011;37974;53.218;6.640;2024-03-23T07:28:24;1114.22;;;995.45;;
51949;SDS011;37974;53.218;6.640;2024-03-23T07:31:05;1094.55;;;981.65;;
51949;SDS011;37974;53.218;6.640;2024-03-23T07:33:35;1104.43;;;990.17;;
51949;SDS011;37974;53.218;6.640;2024-03-23T07:36:02;1092.90;;;981.13;;
51949;SDS011;37974;53.218;6.640;2024-03-23T07:38:28;1056.93;;;952.88;;
51949;SDS011;37974;53.218;6.640;2024-03-23T07:41:07;1101.75;;;988.85;;
51949;SDS011;37974;53.218;6.640;2024-03-23T07:43:34;1162.05;;;999.90;;
51949;SDS011;37974;53.218;6.640;2024-03-23T07:46:00;1159.93;;;999.90;;
51949;SDS011;37974;53.218;6.640;2024-03-23T07:48:27;1101.60;;;988.55;;
51949;SDS011;37974;53.218;6.640;2024-03-23T07:53:26;1126.35;;;999.90;;
51949;SDS011;37974;53.218;6.640;2024-03-23T07:55:54;1152.70;;;999.90;;
51949;SDS011;37974;53.218;6.640;2024-03-23T07:58:21;1164.95;;;999.90;;
51949;SDS011;37974;53.218;6.640;2024-03-23T08:00:47;1151.07;;;999.90;;
51949;SDS011;37974;53.218;6.640;2024-03-23T08:03:12;1120.68;;;998.58;;
51949;SDS011;37974;53.218;6.640;2024-03-23T08:05:38;1105.60;;;991.50;;
51949;SDS011;37974;53.218;6.640;2024-03-23T08:08:04;1074.70;;;967.42;;
51949;SDS011;37974;53.218;6.640;2024-03-23T08:10:30;1147.78;;;999.90;;
51949;SDS011;37974;53.218;6.640;2024-03-23T08:12:55;1081.50;;;971.63;;
51949;SDS011;37974;53.218;6.640;2024-03-23T08:15:21;1053.70;;;950.83;;
51949;SDS011;37974;53.218;6.640;2024-03-23T08:17:47;1013.20;;;918.67;;
51949;SDS011;37974;53.218;6.640;2024-03-23T08:20:12;1068.47;;;961.38;;
51949;SDS011;37974;53.218;6.640;2024-03-23T08:22:38;1063.78;;;958.00;;
51949;SDS011;37974;53.218;6.640;2024-03-23T08:25:04;1042.93;;;940.20;;
51949;SDS011;37974;53.218;6.640;2024-03-23T08:27:30;1079.60;;;971.05;;
51949;SDS011;37974;53.218;6.640;2024-03-23T08:29:56;1089.70;;;978.17;;
51949;SDS011;37974;53.218;6.640;2024-03-23T08:32:22;1101.40;;;988.40;;
51949;SDS011;37974;53.218;6.640;2024-03-23T08:34:47;1117.55;;;997.22;;
51949;SDS011;37974;53.218;6.640;2024-03-23T08:37:13;1097.10;;;986.13;;
51949;SDS011;37974;53.218;6.640;2024-03-23T08:39:39;1082.43;;;972.95;;
51949;SDS011;37974;53.218;6.640;2024-03-23T08:42:06;1105.07;;;989.80;;
51949;SDS011;37974;53.218;6.640;2024-03-23T08:44:33;1104.28;;;990.40;;
51949;SDS011;37974;53.218;6.640;2024-03-23T08:46:59;1114.45;;;994.45;;
51949;SDS011;37974;53.218;6.640;2024-03-23T08:49:24;1147.97;;;999.90;;
51949;SDS011;37974;53.218;6.640;2024-03-23T08:51:50;1131.57;;;999.90;;
51949;SDS011;37974;53.218;6.640;2024-03-23T08:54:16;1098.00;;;983.88;;
51949;SDS011;37974;53.218;6.640;2024-03-23T08:56:42;1078.78;;;969.47;;
51949;SDS011;37974;53.218;6.640;2024-03-23T08:59:08;1144.80;;;999.90;;
51949;SDS011;37974;53.218;6.640;2024-03-23T09:01:33;1139.45;;;999.90;;
51949;SDS011;37974;53.218;6.640;2024-03-23T09:03:59;1152.53;;;999.90;;
51949;SDS011;37974;53.218;6.640;2024-03-23T09:06:25;1142.40;;;999.90;;
51949;SDS011;37974;53.218;6.640;2024-03-23T09:08:50;1133.25;;;999.90;;
51949;SDS011;37974;53.218;6.640;2024-03-23T09:11:16;1125.15;;;999.35;;
51949;SDS011;37974;53.218;6.640;2024-03-23T09:13:42;1115.60;;;996.40;;
51949;SDS011;37974;53.218;6.640;2024-03-23T09:16:07;1137.72;;;999.90;;
51949;SDS011;37974;53.218;6.640;2024-03-23T09:18:35;1107.20;;;990.20;;
51949;SDS011;37974;53.218;6.640;2024-03-23T09:21:02;1099.40;;;985.67;;
51949;SDS011;37974;53.218;6.640;2024-03-23T09:23:29;1099.78;;;985.17;;
51949;SDS011;37974;53.218;6.640;2024-03-23T09:25:55;1117.50;;;997.40;;
51949;SDS011;37974;53.218;6.640;2024-03-23T09:28:21;1053.57;;;948.35;;
51949;SDS011;37974;53.218;6.640;2024-03-23T09:30:47;1001.00;;;907.38;;
51949;SDS011;37974;53.218;6.640;2024-03-23T09:33:13;974.88;;;886.53;;
51949;SDS011;37974;53.218;6.640;2024-03-23T09:35:39;858.10;;;787.45;;
51949;SDS011;37974;53.218;6.640;2024-03-23T09:38:05;749.13;;;691.25;;
51949;SDS011;37974;53.218;6.640;2024-03-23T09:40:40;795.80;;;731.97;;
51949;SDS011;37974;53.218;6.640;2024-03-23T09:43:07;773.47;;;712.58;;
51949;SDS011;37974;53.218;6.640;2024-03-23T09:45:36;779.20;;;717.97;;
51949;SDS011;37974;53.218;6.640;2024-03-23T09:48:05;835.97;;;768.13;;
51949;SDS011;37974;53.218;6.640;2024-03-23T09:50:32;950.22;;;866.72;;
51949;SDS011;37974;53.218;6.640;2024-03-23T09:52:58;957.78;;;871.28;;
51949;SDS011;37974;53.218;6.640;2024-03-23T09:55:24;980.25;;;891.63;;
51949;SDS011;37974;53.218;6.640;2024-03-23T09:57:50;1023.53;;;925.72;;
51949;SDS011;37974;53.218;6.640;2024-03-23T10:00:16;1116.43;;;996.30;;
51949;SDS011;37974;53.218;6.640;2024-03-23T10:02:42;1363.43;;;999.90;;
51949;SDS011;37974;53.218;6.640;2024-03-23T10:05:23;1171.47;;;999.90;;
51949;SDS011;37974;53.218;6.640;2024-03-23T10:07:49;1110.43;;;992.50;;
51949;SDS011;37974;53.218;6.640;2024-03-23T10:10:16;1097.72;;;983.25;;
51949;SDS011;37974;53.218;6.640;2024-03-23T10:12:46;1083.68;;;973.95;;
51949;SDS011;37974;53.218;6.640;2024-03-23T10:15:19;1057.63;;;952.15;;
51949;SDS011;37974;53.218;6.640;2024-03-23T10:20:22;1493.53;;;999.90;;
51949;SDS011;37974;53.218;6.640;2024-03-23T10:22:49;1345.22;;;999.90;;
51949;SDS011;37974;53.218;6.640;2024-03-23T10:25:16;1133.38;;;999.90;;
51949;SDS011;37974;53.218;6.640;2024-03-23T10:27:43;1021.58;;;924.15;;
51949;SDS011;37974;53.218;6.640;2024-03-23T10:32:38;1036.78;;;935.42;;
51949;SDS011;37974;53.218;6.640;2024-03-23T10:35:13;1037.63;;;936.78;;
51949;SDS011;37974;53.218;6.640;2024-03-23T10:37:41;1049.97;;;945.97;;
51949;SDS011;37974;53.218;6.640;2024-03-23T10:40:09;978.22;;;888.75;;
51949;SDS011;37974;53.218;6.640;2024-03-23T10:42:36;947.67;;;863.08;;
51949;SDS011;37974;53.218;6.640;2024-03-23T10:45:04;1061.63;;;952.80;;
51949;SDS011;37974;53.218;6.640;2024-03-23T10:47:31;887.70;;;812.70;;
51949;SDS011;37974;53.218;6.640;2024-03-23T10:49:57;979.55;;;890.55;;
51949;SDS011;37974;53.218;6.640;2024-03-23T10:52:23;1084.07;;;972.22;;
51949;SDS011;37974;53.218;6.640;2024-03-23T10:54:50;898.38;;;821.92;;
51949;SDS011;37974;53.218;6.640;2024-03-23T10:57:18;944.03;;;860.90;;
51949;SDS011;37974;53.218;6.640;2024-03-23T10:59:48;883.25;;;809.75;;
51949;SDS011;37974;53.218;6.640;2024-03-23T11:02:19;734.55;;;677.97;;
51949;SDS011;37974;53.218;6.640;2024-03-23T11:04:45;849.72;;;780.15;;
51949;SDS011;37974;53.218;6.640;2024-03-23T11:09:50;594.17;;;550.25;;
51949;SDS011;37974;53.218;6.640;2024-03-23T11:12:24;765.90;;;705.95;;
51949;SDS011;37974;53.218;6.640;2024-03-23T11:14:53;861.53;;;789.58;;
51949;SDS011;37974;53.218;6.640;2024-03-23T11:17:22;932.67;;;850.80;;
51949;SDS011;37974;53.218;6.640;2024-03-23T11:19:57;996.22;;;903.78;;
51949;SDS011;37974;53.218;6.640;2024-03-23T11:22:38;1022.85;;;925.10;;
51949;SDS011;37974;53.218;6.640;2024-03-23T11:25:13;1016.40;;;919.90;;
51949;SDS011;37974;53.218;6.640;2024-03-23T11:27:40;1018.10;;;921.53;;
51949;SDS011;37974;53.218;6.640;2024-03-23T11:30:11;1014.40;;;919.42;;
51949;SDS011;37974;53.218;6.640;2024-03-23T11:32:44;1074.10;;;965.00;;
51949;SDS011;37974;53.218;6.640;2024-03-23T11:35:24;1193.32;;;999.90;;
51949;SDS011;37974;53.218;6.640;2024-03-23T11:38:08;1232.28;;;999.90;;
51949;SDS011;37974;53.218;6.640;2024-03-23T11:40:36;1241.05;;;999.90;;
51949;SDS011;37974;53.218;6.640;2024-03-23T11:43:04;1100.38;;;986.30;;
51949;SDS011;37974;53.218;6.640;2024-03-23T11:45:35;1116.85;;;995.08;;
51949;SDS011;37974;53.218;6.640;2024-03-23T11:48:05;1050.80;;;948.15;;
51949;SDS011;37974;53.218;6.640;2024-03-23T11:50:40;1071.28;;;962.97;;
51949;SDS011;37974;53.218;6.640;2024-03-23T11:55:50;987.65;;;896.53;;
51949;SDS011;37974;53.218;6.640;2024-03-23T11:58:19;1017.90;;;921.35;;
51949;SDS011;37974;53.218;6.640;2024-03-23T12:00:52;940.63;;;858.35;;
51949;SDS011;37974;53.218;6.640;2024-03-23T12:03:20;961.72;;;875.97;;
51949;SDS011;37974;53.218;6.640;2024-03-23T12:05:48;1009.70;;;914.67;;
51949;SDS011;37974;53.218;6.640;2024-03-23T12:08:16;1028.10;;;928.72;;
51949;SDS011;37974;53.218;6.640;2024-03-23T12:10:44;922.85;;;842.22;;
51949;SDS011;37974;53.218;6.640;2024-03-23T12:13:14;941.78;;;859.00;;
51949;SDS011;37974;53.218;6.640;2024-03-23T12:15:42;928.70;;;848.67;;
51949;SDS011;37974;53.218;6.640;2024-03-23T12:18:08;1108.05;;;989.97;;
51949;SDS011;37974;53.218;6.640;2024-03-23T12:20:35;1124.28;;;999.45;;
51949;SDS011;37974;53.218;6.640;2024-03-23T12:23:06;1101.68;;;986.97;;
51949;SDS011;37974;53.218;6.640;2024-03-23T12:25:34;1053.50;;;950.00;;
51949;SDS011;37974;53.218;6.640;2024-03-23T12:28:01;1084.45;;;974.92;;
51949;SDS011;37974;53.218;6.640;2024-03-23T12:30:27;1092.07;;;979.10;;
51949;SDS011;37974;53.218;6.640;2024-03-23T12:32:52;1105.43;;;989.83;;
51949;SDS011;37974;53.218;6.640;2024-03-23T12:35:18;1084.53;;;974.58;;
51949;SDS011;37974;53.218;6.640;2024-03-23T12:37:44;1144.38;;;999.90;;
51949;SDS011;37974;53.218;6.640;2024-03-23T12:40:10;1122.43;;;997.85;;
51949;SDS011;37974;53.218;6.640;2024-03-23T12:42:36;1124.80;;;999.30;;
51949;SDS011;37974;53.218;6.640;2024-03-23T12:45:02;1171.80;;;999.90;;
51949;SDS011;37974;53.218;6.640;2024-03-23T12:47:30;1158.28;;;999.90;;
51949;SDS011;37974;53.218;6.640;2024-03-23T12:49:55;1306.25;;;999.90;;
51949;SDS011;37974;53.218;6.640;2024-03-23T12:52:21;1120.55;;;998.53;;
51949;SDS011;37974;53.218;6.640;2024-03-23T12:54:49;1100.80;;;986.20;;
51949;SDS011;37974;53.218;6.640;2024-03-23T12:57:14;1165.30;;;999.90;;
51949;SDS011;37974;53.218;6.640;2024-03-23T12:59:40;1081.82;;;972.85;;
51949;SDS011;37974;53.218;6.640;2024-03-23T13:02:06;1080.40;;;970.25;;
51949;SDS011;37974;53.218;6.640;2024-03-23T13:04:32;1285.32;;;999.90;;
51949;SDS011;37974;53.218;6.640;2024-03-23T13:06:58;1602.28;;;999.90;;
51949;SDS011;37974;53.218;6.640;2024-03-23T13:09:23;1244.45;;;999.90;;
51949;SDS011;37974;53.218;6.640;2024-03-23T13:11:49;1260.60;;;999.90;;
51949;SDS011;37974;53.218;6.640;2024-03-23T13:14:15;1208.65;;;999.90;;
51949;SDS011;37974;53.218;6.640;2024-03-23T13:16:42;1129.43;;;999.90;;
51949;SDS011;37974;53.218;6.640;2024-03-23T13:19:07;1094.50;;;981.58;;
51949;SDS011;37974;53.218;6.640;2024-03-23T13:21:33;1114.75;;;995.90;;
51949;SDS011;37974;53.218;6.640;2024-03-23T13:23:59;1095.93;;;983.72;;
51949;SDS011;37974;53.218;6.640;2024-03-23T13:26:24;1009.13;;;914.83;;
51949;SDS011;37974;53.218;6.640;2024-03-23T13:28:50;988.92;;;898.50;;
51949;SDS011;37974;53.218;6.640;2024-03-23T13:31:16;998.67;;;904.35;;
51949;SDS011;37974;53.218;6.640;2024-03-23T13:33:41;1062.00;;;957.25;;
51949;SDS011;37974;53.218;6.640;2024-03-23T13:36:09;1115.00;;;994.38;;
51949;SDS011;37974;53.218;6.640;2024-03-23T13:38:34;1048.03;;;946.35;;
51949;SDS011;37974;53.218;6.640;2024-03-23T13:41:00;994.22;;;902.83;;
51949;SDS011;37974;53.218;6.640;2024-03-23T13:43:27;956.45;;;870.95;;
51949;SDS011;37974;53.218;6.640;2024-03-23T13:45:53;1016.65;;;921.08;;
51949;SDS011;37974;53.218;6.640;2024-03-23T13:48:21;1080.30;;;970.83;;
51949;SDS011;37974;53.218;6.640;2024-03-23T13:50:56;1066.05;;;960.75;;
51949;SDS011;37974;53.218;6.640;2024-03-23T13:53:23;963.92;;;877.75;;
51949;SDS011;37974;53.218;6.640;2024-03-23T13:55:48;993.15;;;901.47;;
51949;SDS011;37974;53.218;6.640;2024-03-23T13:58:15;941.55;;;858.88;;
51949;SDS011;37974;53.218;6.640;2024-03-23T14:00:41;919.95;;;840.53;;
51949;SDS011;37974;53.218;6.640;2024-03-23T14:03:12;929.38;;;848.05;;
51949;SDS011;37974;53.218;6.640;2024-03-23T14:05:39;935.33;;;852.22;;
51949;SDS011;37974;53.218;6.640;2024-03-23T14:08:06;922.40;;;842.13;;
51949;SDS011;37974;53.218;6.640;2024-03-23T14:10:32;981.35;;;891.53;;
51949;SDS011;37974;53.218;6.640;2024-03-23T14:12:58;1019.17;;;921.95;;
51949;SDS011;37974;53.218;6.640;2024-03-23T14:15:26;996.90;;;903.80;;
51949;SDS011;37974;53.218;6.640;2024-03-23T14:17:52;1009.33;;;915.33;;
51949;SDS011;37974;53.218;6.640;2024-03-23T14:20:19;957.38;;;871.78;;
51949;SDS011;37974;53.218;6.640;2024-03-23T14:22:46;993.95;;;903.83;;
51949;SDS011;37974;53.218;6.640;2024-03-23T14:25:12;967.45;;;880.45;;
51949;SDS011;37974;53.218;6.640;2024-03-23T14:27:38;967.78;;;880.35;;
51949;SDS011;37974;53.218;6.640;2024-03-23T14:30:04;999.28;;;906.88;;
51949;SDS011;37974;53.218;6.640;2024-03-23T14:32:30;982.10;;;891.92;;
51949;SDS011;37974;53.218;6.640;2024-03-23T14:35:00;1007.50;;;912.85;;
51949;SDS011;37974;53.218;6.640;2024-03-23T14:37:26;946.55;;;861.58;;
51949;SDS011;37974;53.218;6.640;2024-03-23T14:39:52;979.83;;;890.45;;
51949;SDS011;37974;53.218;6.640;2024-03-23T14:42:17;984.40;;;892.97;;
51949;SDS011;37974;53.218;6.640;2024-03-23T14:44:43;973.92;;;885.40;;
51949;SDS011;37974;53.218;6.640;2024-03-23T14:47:09;964.10;;;877.30;;
51949;SDS011;37974;53.218;6.640;2024-03-23T14:49:35;953.60;;;868.97;;
51949;SDS011;37974;53.218;6.640;2024-03-23T14:52:01;969.75;;;882.53;;